Huntingdon, Tennessee
Current Conditions -  °F | °C
As of 11:55 PM on Saturday 22 Nov 2014 (Local Time) from KPHT Reporting Station
NA  
Wind Chill: 52°   Ceiling: NA
Heat Index: 52°   Visibility: NA
Dew Point: 41°   Wind: 9mph
Humidity: 67%   Direction: 150°SSE
Pressure: 29.98"   Gusts: NA
Location:  36°N, 88.43°W
Report Text: KPHT 230555Z AUTO 15008KT 11/05 A2998 RMK
Loading
Personal Weather Stations






























Interactive Weather Map New forecast layout! Learn more

10-Day Weather Forecast

Advertisements
Track Severe Weather on mobile